createdAt,value
2018-02-24T18:30:14.559Z,103217.68
2018-02-24T18:34:18.707Z,103218.25
2018-02-24T18:38:22.165Z,103216.50
2018-02-24T18:42:25.532Z,103217.19
2018-02-24T18:46:29.298Z,103216.94
2018-02-24T18:50:32.715Z,103218.42
2018-02-24T18:54:36.862Z,103235.56
2018-02-24T18:58:40.395Z,103242.80
2018-02-24T19:02:43.753Z,103242.12
2018-02-24T19:06:47.885Z,103238.64
2018-02-24T19:10:52.220Z,103257.48
2018-02-24T19:14:56.514Z,103260.89
2018-02-24T19:18:59.976Z,103259.70
2018-02-24T19:23:03.329Z,103255.34
2018-02-24T19:27:06.704Z,103262.70
2018-02-24T19:31:10.055Z,103268.14
2018-02-24T19:35:13.540Z,103271.48
2018-02-24T19:39:16.910Z,103277.20
2018-02-24T19:43:21.082Z,103273.75
2018-02-24T19:57:39.175Z,103271.05
2018-02-24T20:01:42.606Z,103278.47
2018-02-24T20:05:46.784Z,103261.74
2018-02-24T20:09:50.191Z,103265.62
2018-02-24T20:13:53.679Z,103270.37
2018-02-24T20:17:57.105Z,103260.70
2018-02-24T20:22:00.601Z,103261.81
2018-02-24T20:26:03.966Z,103261.22
2018-02-24T20:30:07.374Z,103266.09
2018-02-24T20:34:10.764Z,103272.50
2018-02-24T20:38:14.364Z,103265.03
2018-02-24T20:42:18.549Z,103271.55
2018-02-24T20:46:21.965Z,103277.11
2018-02-24T20:50:25.331Z,103282.88
2018-02-24T20:54:28.766Z,103282.45
2018-02-24T20:58:32.131Z,103270.28
2018-02-24T21:02:35.657Z,103274.48
2018-02-24T21:06:39.083Z,103284.56
2018-02-24T21:10:42.557Z,103278.56
2018-02-24T21:14:45.972Z,103285.08
2018-02-24T21:18:49.376Z,103291.39
2018-02-24T21:22:52.764Z,103280.42
2018-02-24T21:26:57.005Z,103279.93
2018-02-24T21:31:00.376Z,103284.63
2018-02-24T21:35:04.552Z,103284.88
2018-02-24T21:39:08.030Z,103282.00
2018-02-24T21:43:11.479Z,103280.69
2018-02-24T21:47:14.850Z,103280.53
2018-02-24T21:51:18.251Z,103278.31
2018-02-24T21:55:21.613Z,103281.55
2018-02-24T21:59:25.187Z,103280.42
2018-02-24T22:03:28.687Z,103295.36
2018-02-24T22:07:32.232Z,103291.91
2018-02-24T22:11:35.619Z,103296.25
2018-02-24T22:15:39.076Z,103297.59
2018-02-24T22:19:43.197Z,103301.95
2018-02-24T22:23:46.598Z,103298.88
2018-02-24T22:27:49.959Z,103295.38
2018-02-24T22:31:53.404Z,103295.23
2018-02-24T22:35:56.760Z,103297.56
2018-02-24T22:40:00.159Z,103305.25
2018-02-24T22:44:03.507Z,103303.80
2018-02-24T22:48:12.429Z,103301.00
2018-02-24T22:52:16.010Z,103301.11
2018-02-24T22:56:19.416Z,103302.34
2018-02-24T23:00:29.556Z,103299.84
2018-02-24T23:04:33.711Z,103299.25
2018-02-24T23:08:37.085Z,103301.70
2018-02-24T23:12:41.332Z,103300.19
2018-02-24T23:16:44.694Z,103304.13
2018-02-24T23:20:48.147Z,103296.81
2018-02-24T23:24:51.517Z,103305.84
2018-02-24T23:28:55.070Z,103302.75
2018-02-24T23:32:58.765Z,103305.42
2018-02-24T23:37:02.933Z,103302.64
2018-02-24T23:41:06.374Z,103302.04
2018-02-24T23:45:09.787Z,103298.45
2018-02-24T23:49:14.028Z,103292.84
2018-02-24T23:53:18.416Z,103301.88
2018-02-24T23:57:21.850Z,103300.00
